sensor_id;sensor_type;location;lat;lon;timestamp;pressure;altitude;pressure_sealevel;temperature;humidity
69223;BME280;56514;51.816;-0.026;2023-04-20T00:02:44;101854.28;;;7.92;57.01
69223;BME280;56514;51.816;-0.026;2023-04-20T00:05:52;101857.88;;;7.89;57.16
69223;BME280;56514;51.816;-0.026;2023-04-20T00:09:02;101849.41;;;7.83;57.06
69223;BME280;56514;51.816;-0.026;2023-04-20T00:12:13;101851.22;;;7.81;57.47
69223;BME280;56514;51.816;-0.026;2023-04-20T00:15:22;101852.31;;;7.75;57.28
69223;BME280;56514;51.816;-0.026;2023-04-20T00:18:31;101853.34;;;7.71;58.49
69223;BME280;56514;51.816;-0.026;2023-04-20T00:21:40;101848.25;;;7.67;58.09
69223;BME280;56514;51.816;-0.026;2023-04-20T00:24:48;101847.59;;;7.62;59.65
69223;BME280;56514;51.816;-0.026;2023-04-20T00:27:59;101850.44;;;7.56;59.08
69223;BME280;56514;51.816;-0.026;2023-04-20T00:31:08;101848.03;;;7.50;60.02
69223;BME280;56514;51.816;-0.026;2023-04-20T00:34:17;101846.38;;;7.47;59.91
69223;BME280;56514;51.816;-0.026;2023-04-20T00:37:02;101833.31;;;7.46;59.83
69223;BME280;56514;51.816;-0.026;2023-04-20T00:39:47;101844.69;;;7.46;60.23
69223;BME280;56514;51.816;-0.026;2023-04-20T00:42:31;101835.19;;;7.42;59.89
69223;BME280;56514;51.816;-0.026;2023-04-20T00:45:17;101835.31;;;7.39;60.19
69223;BME280;56514;51.816;-0.026;2023-04-20T00:48:03;101832.78;;;7.36;60.53
69223;BME280;56514;51.816;-0.026;2023-04-20T00:50:49;101835.59;;;7.32;60.50
69223;BME280;56514;51.816;-0.026;2023-04-20T00:53:35;101831.31;;;7.29;60.29
69223;BME280;56514;51.816;-0.026;2023-04-20T00:56:20;101824.47;;;7.25;61.18
69223;BME280;56514;51.816;-0.026;2023-04-20T00:59:08;101829.72;;;7.25;60.66
69223;BME280;56514;51.816;-0.026;2023-04-20T01:01:53;101821.06;;;7.23;60.69
69223;BME280;56514;51.816;-0.026;2023-04-20T01:04:39;101819.34;;;7.22;61.82
69223;BME280;56514;51.816;-0.026;2023-04-20T01:07:24;101823.84;;;7.18;61.40
69223;BME280;56514;51.816;-0.026;2023-04-20T01:10:10;101812.59;;;7.15;62.07
69223;BME280;56514;51.816;-0.026;2023-04-20T01:12:55;101810.91;;;7.14;61.68
69223;BME280;56514;51.816;-0.026;2023-04-20T01:15:40;101811.81;;;7.13;61.94
69223;BME280;56514;51.816;-0.026;2023-04-20T01:18:25;101799.75;;;7.07;62.81
69223;BME280;56514;51.816;-0.026;2023-04-20T01:21:11;101804.13;;;7.07;62.18
69223;BME280;56514;51.816;-0.026;2023-04-20T01:23:57;101795.50;;;7.05;62.15
69223;BME280;56514;51.816;-0.026;2023-04-20T01:26:43;101790.34;;;7.02;62.43
69223;BME280;56514;51.816;-0.026;2023-04-20T01:29:27;101792.13;;;7.01;62.87
69223;BME280;56514;51.816;-0.026;2023-04-20T01:32:13;101789.50;;;7.01;63.56
69223;BME280;56514;51.816;-0.026;2023-04-20T01:34:58;101792.06;;;7.03;63.45
69223;BME280;56514;51.816;-0.026;2023-04-20T01:38:08;101787.72;;;7.02;64.20
69223;BME280;56514;51.816;-0.026;2023-04-20T01:41:13;101786.97;;;6.98;64.08
69223;BME280;56514;51.816;-0.026;2023-04-20T01:44:22;101783.59;;;6.95;64.07
69223;BME280;56514;51.816;-0.026;2023-04-20T01:47:32;101782.88;;;6.91;63.66
69223;BME280;56514;51.816;-0.026;2023-04-20T01:50:43;101788.28;;;6.87;64.69
69223;BME280;56514;51.816;-0.026;2023-04-20T01:53:52;101786.66;;;6.83;63.95
69223;BME280;56514;51.816;-0.026;2023-04-20T01:57:02;101786.00;;;6.78;64.25
69223;BME280;56514;51.816;-0.026;2023-04-20T02:00:12;101770.38;;;6.75;64.72
69223;BME280;56514;51.816;-0.026;2023-04-20T02:03:22;101779.13;;;6.74;64.56
69223;BME280;56514;51.816;-0.026;2023-04-20T02:06:32;101781.84;;;6.71;65.10
69223;BME280;56514;51.816;-0.026;2023-04-20T02:09:41;101778.47;;;6.67;65.26
69223;BME280;56514;51.816;-0.026;2023-04-20T02:12:51;101772.50;;;6.64;64.54
69223;BME280;56514;51.816;-0.026;2023-04-20T02:16:00;101775.25;;;6.61;64.78
69223;BME280;56514;51.816;-0.026;2023-04-20T02:19:09;101775.28;;;6.59;65.01
69223;BME280;56514;51.816;-0.026;2023-04-20T02:22:19;101777.97;;;6.58;65.11
69223;BME280;56514;51.816;-0.026;2023-04-20T02:25:28;101774.53;;;6.56;64.80
69223;BME280;56514;51.816;-0.026;2023-04-20T02:28:37;101784.19;;;6.54;64.74
69223;BME280;56514;51.816;-0.026;2023-04-20T02:31:25;101779.94;;;6.51;64.87
69223;BME280;56514;51.816;-0.026;2023-04-20T02:34:10;101778.22;;;6.50;64.93
69223;BME280;56514;51.816;-0.026;2023-04-20T02:36:54;101784.31;;;6.51;64.96
69223;BME280;56514;51.816;-0.026;2023-04-20T02:39:39;101775.66;;;6.49;64.75
69223;BME280;56514;51.816;-0.026;2023-04-20T02:42:24;101772.22;;;6.47;66.00
69223;BME280;56514;51.816;-0.026;2023-04-20T02:45:09;101769.59;;;6.47;66.10
69223;BME280;56514;51.816;-0.026;2023-04-20T02:47:54;101779.22;;;6.46;67.07
69223;BME280;56514;51.816;-0.026;2023-04-20T02:50:41;101768.78;;;6.45;66.96
69223;BME280;56514;51.816;-0.026;2023-04-20T02:53:26;101775.88;;;6.43;66.97
69223;BME280;56514;51.816;-0.026;2023-04-20T02:56:11;101778.56;;;6.41;66.85
69223;BME280;56514;51.816;-0.026;2023-04-20T02:58:55;101780.41;;;6.38;67.18
69223;BME280;56514;51.816;-0.026;2023-04-20T03:01:40;101778.72;;;6.37;67.91
69223;BME280;56514;51.816;-0.026;2023-04-20T03:04:26;101770.94;;;6.34;67.62
69223;BME280;56514;51.816;-0.026;2023-04-20T03:07:11;101771.84;;;6.33;67.91
69223;BME280;56514;51.816;-0.026;2023-04-20T03:09:55;101765.78;;;6.31;67.88
69223;BME280;56514;51.816;-0.026;2023-04-20T03:12:40;101777.19;;;6.30;67.72
69223;BME280;56514;51.816;-0.026;2023-04-20T03:15:25;101765.88;;;6.28;67.14
69223;BME280;56514;51.816;-0.026;2023-04-20T03:18:10;101762.47;;;6.26;67.41
69223;BME280;56514;51.816;-0.026;2023-04-20T03:20:55;101769.53;;;6.24;67.32
69223;BME280;56514;51.816;-0.026;2023-04-20T03:23:40;101773.94;;;6.22;67.58
69223;BME280;56514;51.816;-0.026;2023-04-20T03:26:24;101782.69;;;6.22;68.29
69223;BME280;56514;51.816;-0.026;2023-04-20T03:29:09;101773.16;;;6.20;68.18
69223;BME280;56514;51.816;-0.026;2023-04-20T03:31:54;101781.91;;;6.19;68.27
69223;BME280;56514;51.816;-0.026;2023-04-20T03:34:58;101781.13;;;6.17;68.50
69223;BME280;56514;51.816;-0.026;2023-04-20T03:38:03;101775.13;;;6.13;68.22
69223;BME280;56514;51.816;-0.026;2023-04-20T03:41:08;101777.84;;;6.10;69.06
69223;BME280;56514;51.816;-0.026;2023-04-20T03:44:18;101777.94;;;6.07;69.14
69223;BME280;56514;51.816;-0.026;2023-04-20T03:47:27;101782.38;;;6.05;68.35
69223;BME280;56514;51.816;-0.026;2023-04-20T03:50:35;101780.78;;;6.01;68.00
69223;BME280;56514;51.816;-0.026;2023-04-20T03:53:45;101784.34;;;5.99;68.31
69223;BME280;56514;51.816;-0.026;2023-04-20T03:56:54;101783.53;;;5.97;68.59
69223;BME280;56514;51.816;-0.026;2023-04-20T04:00:05;101787.06;;;5.96;68.54
69223;BME280;56514;51.816;-0.026;2023-04-20T04:03:15;101789.78;;;5.93;68.29
69223;BME280;56514;51.816;-0.026;2023-04-20T04:06:24;101788.06;;;5.92;68.36
69223;BME280;56514;51.816;-0.026;2023-04-20T04:09:33;101782.00;;;5.90;69.13
69223;BME280;56514;51.816;-0.026;2023-04-20T04:12:42;101785.50;;;5.90;69.81
69223;BME280;56514;51.816;-0.026;2023-04-20T04:15:52;101784.63;;;5.90;69.58
69223;BME280;56514;51.816;-0.026;2023-04-20T04:18:36;101787.25;;;5.90;69.60
69223;BME280;56514;51.816;-0.026;2023-04-20T04:21:21;101787.25;;;5.90;69.84
69223;BME280;56514;51.816;-0.026;2023-04-20T04:24:06;101786.44;;;5.88;69.98
69223;BME280;56514;51.816;-0.026;2023-04-20T04:26:52;101793.41;;;5.89;69.69
69223;BME280;56514;51.816;-0.026;2023-04-20T04:29:46;101790.88;;;5.86;70.18
69223;BME280;56514;51.816;-0.026;2023-04-20T04:32:33;101797.81;;;5.87;69.68
69223;BME280;56514;51.816;-0.026;2023-04-20T04:35:19;101806.59;;;5.86;69.31
69223;BME280;56514;51.816;-0.026;2023-04-20T04:38:05;101796.22;;;5.81;68.77
69223;BME280;56514;51.816;-0.026;2023-04-20T04:40:51;101799.81;;;5.79;68.65
69223;BME280;56514;51.816;-0.026;2023-04-20T04:43:36;101797.31;;;5.74;68.52
69223;BME280;56514;51.816;-0.026;2023-04-20T04:46:22;101797.44;;;5.71;68.61
69223;BME280;56514;51.816;-0.026;2023-04-20T04:49:08;101800.00;;;5.73;68.62
69223;BME280;56514;51.816;-0.026;2023-04-20T04:51:54;101795.69;;;5.70;68.69
69223;BME280;56514;51.816;-0.026;2023-04-20T04:54:38;101800.03;;;5.71;68.61
69223;BME280;56514;51.816;-0.026;2023-04-20T04:57:24;101803.50;;;5.72;68.71
69223;BME280;56514;51.816;-0.026;2023-04-20T05:00:10;101804.41;;;5.71;68.39
69223;BME280;56514;51.816;-0.026;2023-04-20T05:02:55;101810.47;;;5.73;68.74
69223;BME280;56514;51.816;-0.026;2023-04-20T05:05:41;101805.13;;;5.76;68.70
69223;BME280;56514;51.816;-0.026;2023-04-20T05:08:26;101804.13;;;5.80;68.79
69223;BME280;56514;51.816;-0.026;2023-04-20T05:11:11;101810.22;;;5.82;68.52
69223;BME280;56514;51.816;-0.026;2023-04-20T05:13:56;101811.81;;;5.86;68.44
69223;BME280;56514;51.816;-0.026;2023-04-20T05:16:42;101810.81;;;5.90;68.47
69223;BME280;56514;51.816;-0.026;2023-04-20T05:19:46;101806.28;;;5.95;68.04
69223;BME280;56514;51.816;-0.026;2023-04-20T05:22:55;101807.06;;;5.98;68.11
69223;BME280;56514;51.816;-0.026;2023-04-20T05:26:03;101800.81;;;6.02;68.36
69223;BME280;56514;51.816;-0.026;2023-04-20T05:29:09;101802.34;;;6.09;68.02
69223;BME280;56514;51.816;-0.026;2023-04-20T05:32:13;101798.66;;;6.15;68.22
69223;BME280;56514;51.816;-0.026;2023-04-20T05:35:22;101805.34;;;6.23;68.56
69223;BME280;56514;51.816;-0.026;2023-04-20T05:38:31;101804.09;;;6.35;68.24
69223;BME280;56514;51.816;-0.026;2023-04-20T05:41:40;101801.13;;;6.45;68.13
69223;BME280;56514;51.816;-0.026;2023-04-20T05:44:48;101800.75;;;6.56;69.11
69223;BME280;56514;51.816;-0.026;2023-04-20T05:47:37;101801.34;;;6.64;69.16
69223;BME280;56514;51.816;-0.026;2023-04-20T05:50:23;101804.47;;;6.75;68.75
69223;BME280;56514;51.816;-0.026;2023-04-20T05:53:09;101808.47;;;6.85;69.14
69223;BME280;56514;51.816;-0.026;2023-04-20T05:55:55;101813.25;;;6.97;68.27
69223;BME280;56514;51.816;-0.026;2023-04-20T05:58:40;101808.59;;;7.05;68.03
69223;BME280;56514;51.816;-0.026;2023-04-20T06:01:25;101810.84;;;7.15;68.06
69223;BME280;56514;51.816;-0.026;2023-04-20T06:04:10;101808.84;;;7.22;68.17
69223;BME280;56514;51.816;-0.026;2023-04-20T06:06:55;101813.69;;;7.33;67.68
69223;BME280;56514;51.816;-0.026;2023-04-20T06:09:40;101817.63;;;7.44;67.78
69223;BME280;56514;51.816;-0.026;2023-04-20T06:12:29;101810.25;;;7.54;67.69
69223;BME280;56514;51.816;-0.026;2023-04-20T06:15:13;101823.03;;;7.63;67.52
69223;BME280;56514;51.816;-0.026;2023-04-20T06:17:59;101818.22;;;7.74;67.28
69223;BME280;56514;51.816;-0.026;2023-04-20T06:20:45;101819.50;;;7.85;67.14
69223;BME280;56514;51.816;-0.026;2023-04-20T06:23:30;101818.31;;;7.94;67.09
69223;BME280;56514;51.816;-0.026;2023-04-20T06:26:16;101818.84;;;8.02;67.28
69223;BME280;56514;51.816;-0.026;2023-04-20T06:29:00;101819.28;;;8.13;67.11
69223;BME280;56514;51.816;-0.026;2023-04-20T06:31:46;101818.03;;;8.21;66.81
69223;BME280;56514;51.816;-0.026;2023-04-20T06:34:31;101822.09;;;8.30;66.67
69223;BME280;56514;51.816;-0.026;2023-04-20T06:37:16;101825.28;;;8.38;66.42
69223;BME280;56514;51.816;-0.026;2023-04-20T06:40:02;101817.78;;;8.49;66.11
69223;BME280;56514;51.816;-0.026;2023-04-20T06:42:55;101820.16;;;8.55;66.15
69223;BME280;56514;51.816;-0.026;2023-04-20T06:45:39;101823.31;;;8.63;66.09
69223;BME280;56514;51.816;-0.026;2023-04-20T06:48:44;101814.06;;;8.74;65.71
69223;BME280;56514;51.816;-0.026;2023-04-20T06:51:52;101812.75;;;8.84;65.69
69223;BME280;56514;51.816;-0.026;2023-04-20T06:55:01;101814.81;;;8.97;65.04
69223;BME280;56514;51.816;-0.026;2023-04-20T06:58:06;101815.28;;;9.06;64.92
69223;BME280;56514;51.816;-0.026;2023-04-20T07:01:12;101822.63;;;9.18;64.68
69223;BME280;56514;51.816;-0.026;2023-04-20T07:04:17;101817.69;;;9.31;64.71
69223;BME280;56514;51.816;-0.026;2023-04-20T07:07:24;101808.41;;;9.41;64.15
69223;BME280;56514;51.816;-0.026;2023-04-20T07:10:33;101805.28;;;9.51;64.05
69223;BME280;56514;51.816;-0.026;2023-04-20T07:13:43;101807.44;;;9.62;63.75
69223;BME280;56514;51.816;-0.026;2023-04-20T07:16:52;101805.06;;;9.74;63.62
69223;BME280;56514;51.816;-0.026;2023-04-20T07:20:03;101808.06;;;9.85;63.22
69223;BME280;56514;51.816;-0.026;2023-04-20T07:23:16;101810.03;;;9.99;62.83
69223;BME280;56514;51.816;-0.026;2023-04-20T07:26:01;101807.84;;;10.08;62.53
69223;BME280;56514;51.816;-0.026;2023-04-20T07:28:46;101801.97;;;10.20;62.41
69223;BME280;56514;51.816;-0.026;2023-04-20T07:31:31;101803.06;;;10.33;62.10
69223;BME280;56514;51.816;-0.026;2023-04-20T07:34:16;101799.72;;;10.47;61.27
69223;BME280;56514;51.816;-0.026;2023-04-20T07:37:01;101797.41;;;10.58;61.23
69223;BME280;56514;51.816;-0.026;2023-04-20T07:39:45;101788.78;;;10.72;60.68
69223;BME280;56514;51.816;-0.026;2023-04-20T07:42:31;101794.69;;;10.77;59.72
69223;BME280;56514;51.816;-0.026;2023-04-20T07:45:17;101785.19;;;10.90;60.08
69223;BME280;56514;51.816;-0.026;2023-04-20T07:48:02;101787.25;;;11.00;59.40
69223;BME280;56514;51.816;-0.026;2023-04-20T07:50:49;101780.41;;;11.13;59.04
69223;BME280;56514;51.816;-0.026;2023-04-20T07:53:34;101779.75;;;11.25;58.45
69223;BME280;56514;51.816;-0.026;2023-04-20T07:56:19;101780.78;;;11.38;58.04
69223;BME280;56514;51.816;-0.026;2023-04-20T07:59:05;101781.03;;;11.49;57.73
69223;BME280;56514;51.816;-0.026;2023-04-20T08:01:49;101782.25;;;11.59;56.30
69223;BME280;56514;51.816;-0.026;2023-04-20T08:04:35;101779.22;;;11.67;56.17
69223;BME280;56514;51.816;-0.026;2023-04-20T08:07:21;101774.25;;;11.76;55.81
69223;BME280;56514;51.816;-0.026;2023-04-20T08:10:07;101765.88;;;11.84;55.11
69223;BME280;56514;51.816;-0.026;2023-04-20T08:12:52;101771.50;;;11.93;55.25
69223;BME280;56514;51.816;-0.026;2023-04-20T08:15:37;101767.44;;;12.03;54.75
69223;BME280;56514;51.816;-0.026;2023-04-20T08:18:22;101765.94;;;12.13;54.99
69223;BME280;56514;51.816;-0.026;2023-04-20T08:21:07;101764.44;;;12.23;54.64
69223;BME280;56514;51.816;-0.026;2023-04-20T08:23:53;101765.56;;;12.35;54.03
69223;BME280;56514;51.816;-0.026;2023-04-20T08:26:38;101757.84;;;12.46;53.52
69223;BME280;56514;51.816;-0.026;2023-04-20T08:29:47;101751.13;;;12.55;53.36
69223;BME280;56514;51.816;-0.026;2023-04-20T08:32:52;101756.47;;;12.69;52.36
69223;BME280;56514;51.816;-0.026;2023-04-20T08:35:57;101761.19;;;12.78;51.85
69223;BME280;56514;51.816;-0.026;2023-04-20T08:39:10;101749.09;;;12.88;51.57
69223;BME280;56514;51.816;-0.026;2023-04-20T08:42:20;101737.56;;;13.03;50.77
69223;BME280;56514;51.816;-0.026;2023-04-20T08:45:30;101739.50;;;13.15;49.99
69223;BME280;56514;51.816;-0.026;2023-04-20T08:48:40;101746.75;;;13.25;48.67
69223;BME280;56514;51.816;-0.026;2023-04-20T08:51:53;101738.97;;;13.36;48.33
69223;BME280;56514;51.816;-0.026;2023-04-20T08:55:01;101739.16;;;13.47;47.46
69223;BME280;56514;51.816;-0.026;2023-04-20T08:58:10;101721.63;;;13.59;46.57
69223;BME280;56514;51.816;-0.026;2023-04-20T09:01:26;101721.63;;;13.59;45.31
69223;BME280;56514;51.816;-0.026;2023-04-20T09:04:36;101723.47;;;13.71;45.06
69223;BME280;56514;51.816;-0.026;2023-04-20T09:07:53;101718.94;;;13.85;44.61
69223;BME280;56514;51.816;-0.026;2023-04-20T09:11:03;101725.78;;;14.02;43.91
69223;BME280;56514;51.816;-0.026;2023-04-20T09:14:08;101715.31;;;14.13;44.19
69223;BME280;56514;51.816;-0.026;2023-04-20T09:16:55;101710.84;;;14.28;42.92
69223;BME280;56514;51.816;-0.026;2023-04-20T09:19:52;101716.78;;;14.31;42.12
69223;BME280;56514;51.816;-0.026;2023-04-20T09:22:37;101713.19;;;14.32;41.71
69223;BME280;56514;51.816;-0.026;2023-04-20T09:25:23;101698.41;;;14.41;41.45
69223;BME280;56514;51.816;-0.026;2023-04-20T09:28:11;101698.66;;;14.50;42.17
69223;BME280;56514;51.816;-0.026;2023-04-20T09:30:57;101691.94;;;14.70;42.06
69223;BME280;56514;51.816;-0.026;2023-04-20T09:33:41;101691.75;;;14.73;41.88
69223;BME280;56514;51.816;-0.026;2023-04-20T09:36:42;101681.53;;;14.79;41.14
69223;BME280;56514;51.816;-0.026;2023-04-20T09:39:27;101676.00;;;14.70;40.42
69223;BME280;56514;51.816;-0.026;2023-04-20T09:42:15;101671.84;;;14.78;41.54
69223;BME280;56514;51.816;-0.026;2023-04-20T09:45:01;101669.94;;;14.80;40.84
69223;BME280;56514;51.816;-0.026;2023-04-20T09:47:47;101660.28;;;14.79;41.15
69223;BME280;56514;51.816;-0.026;2023-04-20T09:50:38;101667.50;;;14.90;41.37
69223;BME280;56514;51.816;-0.026;2023-04-20T09:53:24;101658.75;;;15.00;40.12
69223;BME280;56514;51.816;-0.026;2023-04-20T09:56:11;101652.47;;;15.01;39.80
69223;BME280;56514;51.816;-0.026;2023-04-20T09:58:57;101652.91;;;15.08;40.13
69223;BME280;56514;51.816;-0.026;2023-04-20T10:01:43;101645.25;;;15.03;39.87
69223;BME280;56514;51.816;-0.026;2023-04-20T10:04:28;101650.91;;;14.99;40.50
69223;BME280;56514;51.816;-0.026;2023-04-20T10:07:23;101644.69;;;15.11;39.98
69223;BME280;56514;51.816;-0.026;2023-04-20T10:10:11;101634.72;;;15.14;40.25
69223;BME280;56514;51.816;-0.026;2023-04-20T10:12:59;101630.63;;;15.21;39.25
69223;BME280;56514;51.816;-0.026;2023-04-20T10:16:16;101619.66;;;15.26;39.35
69223;BME280;56514;51.816;-0.026;2023-04-20T10:19:22;101620.78;;;15.34;38.58
69223;BME280;56514;51.816;-0.026;2023-04-20T10:22:32;101602.38;;;15.44;37.60
69223;BME280;56514;51.816;-0.026;2023-04-20T10:25:42;101599.75;;;15.31;37.18
69223;BME280;56514;51.816;-0.026;2023-04-20T10:28:49;101606.75;;;15.45;36.66
69223;BME280;56514;51.816;-0.026;2023-04-20T10:31:58;101604.06;;;15.68;37.06
69223;BME280;56514;51.816;-0.026;2023-04-20T10:35:09;101592.97;;;15.74;36.44
69223;BME280;56514;51.816;-0.026;2023-04-20T10:38:34;101591.09;;;15.99;36.73
69223;BME280;56514;51.816;-0.026;2023-04-20T10:41:56;101581.81;;;16.04;37.03
69223;BME280;56514;51.816;-0.026;2023-04-20T10:45:12;101594.03;;;16.18;36.09
69223;BME280;56514;51.816;-0.026;2023-04-20T10:48:22;101579.97;;;16.05;35.32
69223;BME280;56514;51.816;-0.026;2023-04-20T10:51:10;101567.53;;;16.16;35.89
69223;BME280;56514;51.816;-0.026;2023-04-20T10:54:03;101561.84;;;16.10;35.27
69223;BME280;56514;51.816;-0.026;2023-04-20T10:56:52;101565.19;;;15.90;35.10
69223;BME280;56514;51.816;-0.026;2023-04-20T10:59:37;101563.75;;;16.08;35.52
69223;BME280;56514;51.816;-0.026;2023-04-20T11:02:22;101551.81;;;16.35;35.80
69223;BME280;56514;51.816;-0.026;2023-04-20T11:05:11;101545.66;;;16.57;34.14
69223;BME280;56514;51.816;-0.026;2023-04-20T11:07:57;101545.66;;;16.68;35.30
69223;BME280;56514;51.816;-0.026;2023-04-20T11:10:43;101556.81;;;16.73;33.72
69223;BME280;56514;51.816;-0.026;2023-04-20T11:13:28;101545.16;;;16.85;33.53
69223;BME280;56514;51.816;-0.026;2023-04-20T11:16:15;101535.66;;;17.03;33.64
69223;BME280;56514;51.816;-0.026;2023-04-20T11:19:01;101528.84;;;17.10;33.87
69223;BME280;56514;51.816;-0.026;2023-04-20T11:21:47;101540.97;;;17.14;32.61
69223;BME280;56514;51.816;-0.026;2023-04-20T11:24:33;101524.72;;;17.17;32.17
69223;BME280;56514;51.816;-0.026;2023-04-20T11:27:19;101520.13;;;17.39;33.42
69223;BME280;56514;51.816;-0.026;2023-04-20T11:30:08;101516.44;;;17.72;32.33
69223;BME280;56514;51.816;-0.026;2023-04-20T11:32:53;101508.44;;;17.93;31.83
69223;BME280;56514;51.816;-0.026;2023-04-20T11:35:40;101498.63;;;17.93;31.28
69223;BME280;56514;51.816;-0.026;2023-04-20T11:38:30;101499.69;;;17.81;30.90
69223;BME280;56514;51.816;-0.026;2023-04-20T11:41:16;101477.34;;;17.82;31.38
69223;BME280;56514;51.816;-0.026;2023-04-20T11:44:00;101484.94;;;17.87;30.16
69223;BME280;56514;51.816;-0.026;2023-04-20T11:46:46;101490.75;;;17.92;30.67
69223;BME280;56514;51.816;-0.026;2023-04-20T11:50:01;101480.28;;;18.09;30.42
69223;BME280;56514;51.816;-0.026;2023-04-20T11:53:06;101479.09;;;18.32;29.08
69223;BME280;56514;51.816;-0.026;2023-04-20T11:56:18;101458.66;;;18.52;29.45
69223;BME280;56514;51.816;-0.026;2023-04-20T11:59:27;101467.44;;;18.33;27.97
69223;BME280;56514;51.816;-0.026;2023-04-20T12:02:33;101461.75;;;18.17;28.30
69223;BME280;56514;51.816;-0.026;2023-04-20T12:05:38;101456.81;;;18.13;29.10
69223;BME280;56514;51.816;-0.026;2023-04-20T12:08:43;101443.47;;;18.43;28.28
69223;BME280;56514;51.816;-0.026;2023-04-20T12:11:53;101431.84;;;18.72;28.67
69223;BME280;56514;51.816;-0.026;2023-04-20T12:15:03;101441.28;;;18.86;28.17
69223;BME280;56514;51.816;-0.026;2023-04-20T12:18:11;101433.53;;;19.02;28.03
69223;BME280;56514;51.816;-0.026;2023-04-20T12:21:20;101438.88;;;19.11;28.00
69223;BME280;56514;51.816;-0.026;2023-04-20T12:24:05;101435.66;;;19.17;26.82
69223;BME280;56514;51.816;-0.026;2023-04-20T12:26:51;101423.41;;;19.15;26.37
69223;BME280;56514;51.816;-0.026;2023-04-20T12:29:36;101417.63;;;19.00;26.33
69223;BME280;56514;51.816;-0.026;2023-04-20T12:32:21;101422.00;;;18.92;26.65
69223;BME280;56514;51.816;-0.026;2023-04-20T12:35:06;101417.78;;;19.08;26.70
69223;BME280;56514;51.816;-0.026;2023-04-20T12:37:52;101416.34;;;19.23;27.19
69223;BME280;56514;51.816;-0.026;2023-04-20T12:40:36;101408.88;;;19.46;27.08
69223;BME280;56514;51.816;-0.026;2023-04-20T12:43:21;101401.03;;;19.81;27.15
69223;BME280;56514;51.816;-0.026;2023-04-20T12:46:06;101406.38;;;19.81;25.02
69223;BME280;56514;51.816;-0.026;2023-04-20T12:48:51;101394.47;;;19.66;26.22
69223;BME280;56514;51.816;-0.026;2023-04-20T12:51:36;101395.81;;;19.80;26.39
69223;BME280;56514;51.816;-0.026;2023-04-20T12:54:21;101409.06;;;19.81;25.32
69223;BME280;56514;51.816;-0.026;2023-04-20T12:57:06;101395.81;;;20.07;25.57
69223;BME280;56514;51.816;-0.026;2023-04-20T12:59:51;101391.34;;;20.34;25.07
69223;BME280;56514;51.816;-0.026;2023-04-20T13:02:37;101392.28;;;20.60;25.47
69223;BME280;56514;51.816;-0.026;2023-04-20T13:05:22;101395.59;;;21.50;24.39
69223;BME280;56514;51.816;-0.026;2023-04-20T13:08:06;101394.69;;;23.40;23.23
69223;BME280;56514;51.816;-0.026;2023-04-20T13:10:51;101388.94;;;24.98;19.84
69223;BME280;56514;51.816;-0.026;2023-04-20T13:13:36;101381.53;;;26.39;19.71
69223;BME280;56514;51.816;-0.026;2023-04-20T13:16:23;101378.59;;;27.39;17.26
69223;BME280;56514;51.816;-0.026;2023-04-20T13:19:08;101377.06;;;27.92;16.67
69223;BME280;56514;51.816;-0.026;2023-04-20T13:21:53;101372.13;;;28.02;17.78
69223;BME280;56514;51.816;-0.026;2023-04-20T13:24:59;101362.19;;;28.28;16.54
69223;BME280;56514;51.816;-0.026;2023-04-20T13:28:04;101376.13;;;27.78;16.77
69223;BME280;56514;51.816;-0.026;2023-04-20T13:31:13;101374.03;;;28.68;16.88
69223;BME280;56514;51.816;-0.026;2023-04-20T13:34:18;101365.72;;;29.54;15.26
69223;BME280;56514;51.816;-0.026;2023-04-20T13:37:24;101352.78;;;29.37;13.39
69223;BME280;56514;51.816;-0.026;2023-04-20T13:40:32;101357.16;;;28.98;14.73
69223;BME280;56514;51.816;-0.026;2023-04-20T13:43:42;101338.28;;;29.82;14.24
69223;BME280;56514;51.816;-0.026;2023-04-20T13:46:51;101344.31;;;30.41;12.82
69223;BME280;56514;51.816;-0.026;2023-04-20T13:50:00;101339.22;;;30.07;13.36
69223;BME280;56514;51.816;-0.026;2023-04-20T13:53:11;101338.94;;;30.28;13.67
69223;BME280;56514;51.816;-0.026;2023-04-20T13:56:21;101324.28;;;30.91;12.88
69223;BME280;56514;51.816;-0.026;2023-04-20T13:59:29;101321.19;;;31.73;11.37
69223;BME280;56514;51.816;-0.026;2023-04-20T14:02:39;101314.16;;;31.65;12.29
69223;BME280;56514;51.816;-0.026;2023-04-20T14:05:47;101299.72;;;31.83;12.50
69223;BME280;56514;51.816;-0.026;2023-04-20T14:08:57;101300.59;;;31.77;11.85
69223;BME280;56514;51.816;-0.026;2023-04-20T14:12:05;101295.56;;;31.56;12.06
69223;BME280;56514;51.816;-0.026;2023-04-20T14:15:15;101289.19;;;31.44;12.41
69223;BME280;56514;51.816;-0.026;2023-04-20T14:18:24;101292.59;;;32.11;13.46
69223;BME280;56514;51.816;-0.026;2023-04-20T14:21:11;101287.88;;;32.18;12.64
69223;BME280;56514;51.816;-0.026;2023-04-20T14:23:55;101283.19;;;31.17;13.43
69223;BME280;56514;51.816;-0.026;2023-04-20T14:26:41;101288.56;;;31.24;13.65
69223;BME280;56514;51.816;-0.026;2023-04-20T14:29:26;101273.16;;;31.72;13.77
69223;BME280;56514;51.816;-0.026;2023-04-20T14:32:11;101275.91;;;32.19;13.49
69223;BME280;56514;51.816;-0.026;2023-04-20T14:34:56;101263.44;;;32.23;12.93
69223;BME280;56514;51.816;-0.026;2023-04-20T14:37:41;101264.84;;;32.44;13.22
69223;BME280;56514;51.816;-0.026;2023-04-20T14:40:26;101255.50;;;32.52;13.12
69223;BME280;56514;51.816;-0.026;2023-04-20T14:43:11;101251.78;;;33.73;12.20
69223;BME280;56514;51.816;-0.026;2023-04-20T14:45:56;101257.25;;;34.13;12.49
69223;BME280;56514;51.816;-0.026;2023-04-20T14:48:42;101257.22;;;33.22;12.82
69223;BME280;56514;51.816;-0.026;2023-04-20T14:51:29;101241.97;;;33.49;12.87
69223;BME280;56514;51.816;-0.026;2023-04-20T14:54:16;101241.22;;;34.66;12.38
69223;BME280;56514;51.816;-0.026;2023-04-20T14:57:01;101224.03;;;33.18;12.86
69223;BME280;56514;51.816;-0.026;2023-04-20T14:59:46;101232.81;;;30.77;15.03
69223;BME280;56514;51.816;-0.026;2023-04-20T15:02:31;101229.25;;;29.00;16.87
69223;BME280;56514;51.816;-0.026;2023-04-20T15:05:16;101226.19;;;27.37;17.43
69223;BME280;56514;51.816;-0.026;2023-04-20T15:08:01;101227.00;;;25.77;18.81